Time;durP1;ratioP1;P1;durP2;ratioP2;P2;SDS_P1;SDS_P2;PMS_P1;PMS_P2;Temp;Humidity;BMP_temperature;BMP_pressure;BME280_temperature;BME280_humidity;BME280_pressure;Samples;Min_cycle;Max_cycle;Signal;HPM_P1;HPM_P2
2022/09/18 00:01:08;;;;;;;;;6.25;4.75;;;;;15.44;38.04;101657.66;4998113;28;45479;-50
2022/09/18 00:03:33;;;;;;;;;9.25;6.50;;;;;15.41;37.93;101652.44;5001477;28;45376;-52
2022/09/18 00:06:05;;;;;;;;;6.75;6.75;;;;;15.38;37.76;101648.06;4980349;28;45348;-53
2022/09/18 00:08:31;;;;;;;;;7.50;6.25;;;;;15.41;38.23;101655.06;4993403;28;45325;-53
2022/09/18 00:10:56;;;;;;;;;7.50;4.50;;;;;15.40;37.74;101650.69;5002298;28;45246;-52
2022/09/18 00:13:21;;;;;;;;;7.00;6.50;;;;;15.30;38.16;101642.03;5006896;28;46273;-51
2022/09/18 00:15:54;;;;;;;;;7.50;6.50;;;;;15.36;38.03;101649.88;5002496;28;45475;-51
2022/09/18 00:18:19;;;;;;;;;6.25;6.25;;;;;15.36;37.96;101654.31;5001675;28;45460;-52
2022/09/18 00:20:44;;;;;;;;;5.50;5.50;;;;;15.34;37.69;101656.09;5001159;28;45491;-53
2022/09/18 00:23:10;;;;;;;;;3.75;3.50;;;;;15.33;37.90;101654.34;5001699;28;45408;-50
2022/09/18 00:25:35;;;;;;;;;6.00;6.00;;;;;15.32;38.10;101649.94;5001675;28;45391;-53
2022/09/18 00:28:01;;;;;;;;;5.00;5.00;;;;;15.31;38.48;101645.53;5001865;28;45331;-51
2022/09/18 00:30:26;;;;;;;;;6.00;6.00;;;;;15.29;38.08;101645.59;5001067;28;45266;-51
2022/09/18 00:32:51;;;;;;;;;5.75;5.75;;;;;15.28;38.31;101647.38;5001519;28;46316;-52
2022/09/18 00:35:17;;;;;;;;;8.00;6.75;;;;;15.28;38.46;101646.47;5001486;28;45321;-52
2022/09/18 00:37:42;;;;;;;;;5.75;5.75;;;;;15.26;37.99;101641.22;4980697;28;45348;-52
2022/09/18 00:40:08;;;;;;;;;6.50;6.50;;;;;15.25;38.46;101638.59;4999797;28;45496;-50
2022/09/18 00:42:33;;;;;;;;;7.00;6.00;;;;;15.24;38.16;101642.16;5001367;28;46189;-51
2022/09/18 00:44:59;;;;;;;;;7.25;7.00;;;;;15.23;38.52;101640.41;5001182;28;45475;-52
2022/09/18 00:47:47;;;;;;;;;7.25;7.25;;;;;15.22;38.38;101641.28;4980752;28;45371;-53
2022/09/18 00:50:18;;;;;;;;;6.50;5.25;;;;;15.20;38.88;101646.63;4989935;28;45245;-51
2022/09/18 00:52:58;;;;;;;;;5.75;5.75;;;;;15.18;38.46;101648.47;5000955;28;45395;-52
2022/09/18 00:55:30;;;;;;;;;6.25;6.25;;;;;15.17;38.90;101643.16;5001599;28;45597;-52
2022/09/18 00:57:59;;;;;;;;;5.00;5.00;;;;;15.17;38.65;101651.09;5001159;28;45155;-54
2022/09/18 01:00:26;;;;;;;;;8.25;7.25;;;;;15.15;38.63;101650.28;5000980;28;45552;-53
2022/09/18 01:02:52;;;;;;;;;6.50;6.50;;;;;15.15;38.54;101656.44;5000959;28;45325;-52
2022/09/18 01:05:29;;;;;;;;;3.50;3.50;;;;;15.14;38.59;101654.69;5001273;28;45497;-53
2022/09/18 01:08:20;;;;;;;;;5.00;4.25;;;;;15.11;38.63;101649.47;5001403;28;45314;-52
2022/09/18 01:10:50;;;;;;;;;6.75;5.75;;;;;15.08;38.68;101647.75;4998906;28;45636;-50
2022/09/18 01:13:46;;;;;;;;;6.00;6.00;;;;;15.10;38.62;101648.56;5000654;28;45562;-53
2022/09/18 01:16:32;;;;;;;;;6.50;6.50;;;;;15.07;38.93;101659.22;5001046;28;45251;-52
2022/09/18 01:19:32;;;;;;;;;6.75;6.00;;;;;15.04;39.22;101651.38;5001015;28;45428;-54
2022/09/18 01:22:19;;;;;;;;;9.50;6.50;;;;;15.01;38.90;101651.41;5000676;28;45404;-52
2022/09/18 01:25:06;;;;;;;;;7.00;7.00;;;;;15.00;39.20;101646.16;4999815;28;46063;-53
2022/09/18 01:28:06;;;;;;;;;7.50;6.00;;;;;14.97;38.94;101641.78;4999726;28;45332;-51
2022/09/18 01:30:34;;;;;;;;;6.75;6.50;;;;;14.94;39.01;101645.34;4979908;28;45348;-53
2022/09/18 01:33:09;;;;;;;;;6.00;6.00;;;;;14.92;39.39;101647.16;4993549;28;45276;-54
2022/09/18 01:35:44;;;;;;;;;10.50;9.50;;;;;14.89;38.91;101643.69;5000565;28;45364;-54
2022/09/18 01:38:27;;;;;;;;;10.75;8.00;;;;;14.87;39.33;101640.22;4980715;28;45340;-53
2022/09/18 01:41:00;;;;;;;;;6.50;6.50;;;;;14.86;39.29;101643.75;5000892;28;45321;-53
2022/09/18 01:43:29;;;;;;;;;8.00;7.50;;;;;14.84;39.54;101641.13;4979296;28;45505;-53
2022/09/18 01:45:58;;;;;;;;;6.75;6.75;;;;;14.82;39.22;101642.94;4993159;28;45263;-54
2022/09/18 01:48:29;;;;;;;;;7.00;7.00;;;;;14.77;39.21;101639.50;5000524;28;45654;-53
2022/09/18 01:51:03;;;;;;;;;9.50;8.25;;;;;14.79;39.55;101635.03;5000625;28;45253;-53
2022/09/18 01:53:36;;;;;;;;;9.00;7.75;;;;;14.75;39.10;101636.88;4978760;28;45540;-52
2022/09/18 01:56:08;;;;;;;;;8.25;7.50;;;;;14.76;39.62;101640.38;4995947;28;45445;-51
2022/09/18 01:58:34;;;;;;;;;8.00;7.50;;;;;14.74;39.15;101631.59;5000116;28;45311;-52
2022/09/18 02:01:05;;;;;;;;;6.75;6.75;;;;;14.69;39.16;101625.50;4999916;28;45405;-53
2022/09/18 02:03:37;;;;;;;;;7.50;7.50;;;;;14.70;39.26;101640.50;4999714;28;45433;-53
2022/09/18 02:06:15;;;;;;;;;7.00;7.00;;;;;14.68;39.32;101642.28;5000069;28;45414;-53
2022/09/18 02:08:46;;;;;;;;;7.50;7.50;;;;;14.65;39.83;101629.13;5000079;28;45386;-54
2022/09/18 02:11:14;;;;;;;;;7.25;7.25;;;;;14.63;39.77;101637.06;5000320;28;45298;-52
2022/09/18 02:14:07;;;;;;;;;9.50;6.75;;;;;14.61;39.49;101633.53;4999835;28;45180;-52
2022/09/18 02:16:39;;;;;;;;;5.00;4.25;;;;;14.58;39.45;101626.53;5000087;28;46186;-53
2022/09/18 02:19:24;;;;;;;;;6.00;6.00;;;;;14.53;39.63;101623.09;4999950;28;45417;-52
2022/09/18 02:21:53;;;;;;;;;5.50;5.50;;;;;14.53;39.41;101624.88;5000308;28;45410;-52
2022/09/18 02:24:23;;;;;;;;;6.75;5.75;;;;;14.50;40.00;101620.50;5000180;28;45311;-53
2022/09/18 02:26:52;;;;;;;;;6.75;5.00;;;;;14.50;39.57;101630.22;4999934;28;45236;-51
2022/09/18 02:29:20;;;;;;;;;6.75;6.00;;;;;14.47;40.01;101623.19;4999646;28;45343;-53
2022/09/18 02:31:48;;;;;;;;;6.00;5.25;;;;;14.45;40.07;101624.97;5000034;28;45290;-53
2022/09/18 02:34:13;;;;;;;;;5.00;4.00;;;;;14.44;39.66;101625.91;4979067;28;45522;-54
2022/09/18 02:37:06;;;;;;;;;7.25;6.00;;;;;14.43;39.72;101626.81;4995331;28;45321;-53
2022/09/18 02:39:34;;;;;;;;;5.75;5.75;;;;;14.40;39.69;101622.44;5000186;28;45301;-50
2022/09/18 02:42:11;;;;;;;;;5.25;5.00;;;;;14.39;40.09;101618.03;4999978;28;45507;-50
2022/09/18 02:44:57;;;;;;;;;6.00;6.00;;;;;14.37;39.94;101621.59;4999218;28;45465;-52
2022/09/18 02:47:54;;;;;;;;;8.00;6.50;;;;;14.36;40.13;101622.50;4998915;28;45344;-51
2022/09/18 02:50:27;;;;;;;;;6.00;6.00;;;;;14.33;40.68;101622.56;4978439;28;45342;-53
2022/09/18 02:53:11;;;;;;;;;7.00;7.00;;;;;14.31;40.13;101619.91;4982085;28;45381;-53
2022/09/18 02:55:36;;;;;;;;;9.25;6.50;;;;;14.28;40.15;101626.13;4982182;28;45407;-53
2022/09/18 02:58:20;;;;;;;;;7.50;5.75;;;;;14.24;40.51;101616.50;4999132;28;45467;-53
2022/09/18 03:00:48;;;;;;;;;6.50;6.00;;;;;14.25;40.19;101623.53;4999893;28;45303;-53
2022/09/18 03:03:16;;;;;;;;;7.00;7.00;;;;;14.22;40.47;101604.22;4999818;28;45326;-52
2022/09/18 03:05:42;;;;;;;;;4.50;3.25;;;;;14.19;40.39;101610.44;4982262;28;45279;-56
2022/09/18 03:08:07;;;;;;;;;6.25;6.25;;;;;14.14;40.69;101602.56;4999538;28;46260;-55
2022/09/18 03:10:33;;;;;;;;;5.25;5.00;;;;;14.14;40.58;101606.97;4999458;28;45260;-53
2022/09/18 03:12:58;;;;;;;;;10.00;8.75;;;;;14.12;40.34;101606.13;4999337;28;45429;-53
2022/09/18 03:15:23;;;;;;;;;2.00;2.00;;;;;14.11;40.65;101604.38;5000354;28;45322;-54
2022/09/18 03:17:49;;;;;;;;;6.00;6.00;;;;;14.08;40.51;101604.44;5002894;28;46034;-52
2022/09/18 03:20:14;;;;;;;;;8.25;6.50;;;;;14.08;40.67;101607.94;5003012;28;45440;-51
2022/09/18 03:22:39;;;;;;;;;7.25;5.25;;;;;13.97;40.89;101583.44;5003150;28;45322;-53
2022/09/18 03:25:05;;;;;;;;;6.00;6.00;;;;;14.05;40.67;101602.72;5002766;28;47070;-52
2022/09/18 03:27:31;;;;;;;;;5.00;4.25;;;;;14.01;40.54;101600.13;5002542;28;45411;-50
2022/09/18 03:29:56;;;;;;;;;6.25;6.25;;;;;13.96;40.81;101586.97;5002471;28;45240;-52
2022/09/18 03:32:21;;;;;;;;;6.00;5.00;;;;;13.97;40.63;101594.00;5002676;28;45424;-52
2022/09/18 03:34:47;;;;;;;;;3.75;3.75;;;;;13.96;40.93;101594.91;5002654;28;45540;-53
2022/09/18 03:37:12;;;;;;;;;6.00;5.00;;;;;13.91;40.78;101589.69;5002423;28;45412;-53
2022/09/18 03:39:38;;;;;;;;;6.25;5.75;;;;;13.93;41.09;101592.31;5002551;28;45255;-52
2022/09/18 03:42:03;;;;;;;;;4.75;4.50;;;;;13.91;40.94;101594.97;4981901;28;45291;-53
2022/09/18 03:44:29;;;;;;;;;5.25;5.25;;;;;13.90;40.75;101597.63;4996062;28;45325;-52
2022/09/18 03:46:54;;;;;;;;;6.00;5.75;;;;;13.89;40.89;101599.41;4981330;28;49446;-52
2022/09/18 03:49:19;;;;;;;;;5.75;5.75;;;;;13.85;41.16;101588.91;4996122;28;45303;-53
2022/09/18 03:51:44;;;;;;;;;7.00;5.00;;;;;13.85;41.31;101589.78;5002647;28;45248;-53
2022/09/18 03:54:10;;;;;;;;;5.00;4.00;;;;;13.81;40.76;101594.22;4981228;28;47841;-49
2022/09/18 03:56:37;;;;;;;;;7.00;5.75;;;;;13.81;41.39;101598.63;5002123;28;46350;-51
2022/09/18 03:59:03;;;;;;;;;6.00;5.00;;;;;13.79;41.23;101600.44;5001638;28;45425;-50
2022/09/18 04:01:28;;;;;;;;;4.50;4.50;;;;;13.76;41.05;101600.47;5002256;28;45219;-52
2022/09/18 04:03:53;;;;;;;;;7.00;6.00;;;;;13.74;40.95;101597.84;5002120;28;45564;-50
2022/09/18 04:06:19;;;;;;;;;6.00;6.00;;;;;13.72;41.52;101598.75;4981277;28;46012;-52
2022/09/18 04:08:44;;;;;;;;;6.00;5.75;;;;;13.68;41.61;101583.88;4994930;28;45503;-54
2022/09/18 04:11:09;;;;;;;;;6.00;6.00;;;;;13.66;41.40;101589.19;5002084;28;45286;-53
2022/09/18 04:13:35;;;;;;;;;5.50;5.25;;;;;13.64;41.64;101586.53;5001789;28;45575;-50
2022/09/18 04:16:00;;;;;;;;;6.50;6.50;;;;;13.61;41.52;101578.66;4984005;28;53022;-51
2022/09/18 04:18:25;;;;;;;;;6.50;6.25;;;;;13.62;41.67;101587.44;5001847;28;45349;-53
2022/09/18 04:20:51;;;;;;;;;5.50;5.00;;;;;13.60;41.40;101584.84;5001898;28;45344;-50
2022/09/18 04:23:17;;;;;;;;;7.00;5.75;;;;;13.58;41.58;101583.97;5001947;28;45314;-49
2022/09/18 04:25:43;;;;;;;;;7.25;4.50;;;;;13.57;41.87;101582.25;5001716;28;46162;-52
2022/09/18 04:28:11;;;;;;;;;6.75;6.00;;;;;13.55;41.72;101585.81;5001060;28;45481;-52
2022/09/18 04:30:37;;;;;;;;;9.50;5.75;;;;;13.52;41.91;101586.72;5001416;28;45400;-53
2022/09/18 04:33:04;;;;;;;;;5.00;5.00;;;;;13.45;41.60;101577.13;5001592;28;45461;-51
2022/09/18 04:35:29;;;;;;;;;6.50;5.00;;;;;13.46;42.07;101586.78;5001356;28;46263;-53
2022/09/18 04:37:54;;;;;;;;;7.25;6.00;;;;;13.48;41.76;101600.84;5001577;28;45259;-52
2022/09/18 04:40:20;;;;;;;;;7.00;5.75;;;;;13.43;41.86;101594.75;5001555;28;45475;-53
2022/09/18 04:42:46;;;;;;;;;6.50;5.75;;;;;13.39;42.00;101600.97;5001387;28;45387;-53
2022/09/18 04:45:11;;;;;;;;;4.25;4.25;;;;;13.39;42.13;101601.81;5000956;28;46127;-53
2022/09/18 04:47:36;;;;;;;;;5.00;5.00;;;;;13.36;42.01;101600.94;5001541;28;45283;-51
2022/09/18 04:50:03;;;;;;;;;6.75;4.75;;;;;13.32;41.91;101587.78;4980546;28;45352;-53
2022/09/18 04:52:29;;;;;;;;;8.75;6.25;;;;;13.31;42.25;101598.38;4993343;28;45546;-51
2022/09/18 04:54:54;;;;;;;;;6.25;5.50;;;;;13.25;41.97;101599.31;5001031;28;46204;-52
2022/09/18 04:57:19;;;;;;;;;4.00;4.00;;;;;13.24;42.06;101602.84;5001357;28;45211;-54
2022/09/18 04:59:45;;;;;;;;;7.75;6.25;;;;;13.21;42.33;101596.75;5001049;28;45667;-52
2022/09/18 05:02:10;;;;;;;;;8.00;5.00;;;;;13.20;42.41;101601.13;5001253;28;45392;-53
2022/09/18 05:04:36;;;;;;;;;5.50;5.50;;;;;13.19;42.29;101609.94;5000915;28;49649;-51
2022/09/18 05:07:03;;;;;;;;;6.50;5.00;;;;;13.17;42.45;101606.47;5001462;28;45320;-51
2022/09/18 05:09:29;;;;;;;;;6.75;5.25;;;;;13.13;42.64;101599.44;5001216;28;45437;-53
2022/09/18 05:11:54;;;;;;;;;7.00;6.25;;;;;13.13;42.38;101607.38;5001065;28;45500;-52
2022/09/18 05:14:20;;;;;;;;;5.25;5.00;;;;;13.12;42.41;101608.28;4984096;28;46003;-53
2022/09/18 05:16:45;;;;;;;;;6.75;5.50;;;;;13.08;42.14;101606.53;5001017;28;51714;-54
2022/09/18 05:19:10;;;;;;;;;7.00;7.00;;;;;13.10;42.61;101617.97;5000975;28;45324;-54
2022/09/18 05:21:35;;;;;;;;;8.00;5.50;;;;;13.08;42.41;101611.81;5000826;28;45814;-53
2022/09/18 05:24:01;;;;;;;;;5.00;5.00;;;;;13.04;42.60;101599.56;5000849;28;46091;-53
2022/09/18 05:26:27;;;;;;;;;5.00;3.75;;;;;13.08;42.45;101603.91;5001082;28;45254;-51
2022/09/18 05:28:52;;;;;;;;;6.00;5.00;;;;;13.07;42.64;101599.50;5000676;28;45406;-54
2022/09/18 05:31:17;;;;;;;;;7.25;6.00;;;;;13.06;42.49;101608.34;5001077;28;45593;-53
2022/09/18 05:33:43;;;;;;;;;7.00;6.25;;;;;13.02;42.61;101607.50;5000580;28;47324;-54
2022/09/18 05:36:09;;;;;;;;;6.00;6.00;;;;;13.05;42.81;101606.59;5000622;28;45296;-54
2022/09/18 05:38:34;;;;;;;;;8.00;5.75;;;;;13.05;42.63;101604.81;4999930;28;45312;-54
2022/09/18 05:41:00;;;;;;;;;7.75;5.50;;;;;13.05;42.78;101603.94;5000877;28;45493;-53
2022/09/18 05:43:26;;;;;;;;;5.75;5.75;;;;;13.07;42.72;101604.78;5000277;28;47611;-53
2022/09/18 05:45:51;;;;;;;;;8.25;7.00;;;;;13.07;42.69;101610.06;5000637;28;45250;-51
2022/09/18 05:48:17;;;;;;;;;9.00;6.00;;;;;13.06;42.90;101613.63;4979827;28;45399;-53
2022/09/18 05:50:42;;;;;;;;;6.75;5.75;;;;;13.01;42.99;101611.88;4982955;28;45307;-53
2022/09/18 05:53:14;;;;;;;;;6.50;6.50;;;;;13.05;42.85;101623.28;4999997;28;56359;-50
2022/09/18 05:55:39;;;;;;;;;7.50;6.25;;;;;13.03;42.80;101616.28;5000428;28;45356;-53
2022/09/18 05:58:06;;;;;;;;;7.00;7.00;;;;;13.02;42.89;101620.69;4999937;28;45455;-52
2022/09/18 06:00:33;;;;;;;;;10.50;9.25;;;;;13.02;42.83;101628.59;5000434;28;45432;-52
2022/09/18 06:03:03;;;;;;;;;8.00;7.00;;;;;12.99;42.79;101623.34;4999960;28;45625;-52
2022/09/18 06:05:31;;;;;;;;;8.25;6.00;;;;;12.97;43.18;101618.09;5000122;28;45279;-53
2022/09/18 06:07:57;;;;;;;;;6.50;5.00;;;;;12.93;43.05;101624.28;5000186;28;45486;-50
2022/09/18 06:10:24;;;;;;;;;5.50;5.50;;;;;12.91;43.14;101626.06;4999646;28;45540;-52
2022/09/18 06:12:49;;;;;;;;;8.25;6.75;;;;;12.90;43.16;101621.66;4998423;28;45236;-52
2022/09/18 06:15:15;;;;;;;;;6.50;5.00;;;;;12.90;43.21;101628.72;4999670;28;45350;-52
2022/09/18 06:17:41;;;;;;;;;6.25;5.75;;;;;12.88;43.08;101626.09;5000181;28;45416;-56
2022/09/18 06:20:08;;;;;;;;;7.75;6.00;;;;;12.88;43.17;101630.50;4979012;28;45421;-53
2022/09/18 06:22:36;;;;;;;;;5.00;5.00;;;;;12.87;43.22;101634.91;4999908;28;47001;-49
2022/09/18 06:25:03;;;;;;;;;6.00;5.00;;;;;12.89;43.08;101626.97;4999755;28;45337;-59
2022/09/18 06:27:28;;;;;;;;;4.00;4.00;;;;;12.89;42.84;101630.47;5000023;28;45342;-54
2022/09/18 06:29:54;;;;;;;;;5.00;5.00;;;;;12.91;43.33;101636.63;4999387;28;50217;-57
2022/09/18 06:32:20;;;;;;;;;4.50;4.50;;;;;12.91;43.41;101631.34;5000001;28;46154;-57
2022/09/18 06:34:46;;;;;;;;;5.75;5.75;;;;;12.93;43.38;101633.97;4999659;28;45236;-57
2022/09/18 06:37:12;;;;;;;;;6.75;6.75;;;;;12.94;43.24;101638.34;4999875;28;45330;-57
2022/09/18 06:39:38;;;;;;;;;8.75;7.50;;;;;12.96;43.45;101633.94;4999990;28;45389;-53
2022/09/18 06:42:04;;;;;;;;;18.00;15.25;;;;;12.97;43.29;101633.06;4999345;28;46104;-53
2022/09/18 06:44:29;;;;;;;;;27.25;23.00;;;;;13.01;43.72;101640.91;4978894;28;45375;-52
2022/09/18 06:46:55;;;;;;;;;6.50;5.75;;;;;13.01;43.33;101640.03;4999946;28;45278;-56
2022/09/18 06:49:20;;;;;;;;;10.00;6.50;;;;;13.07;43.50;101650.53;5000185;28;45520;-58
2022/09/18 06:51:47;;;;;;;;;6.00;6.00;;;;;13.09;43.24;101651.38;5003008;28;52587;-55
2022/09/18 06:54:13;;;;;;;;;7.75;7.75;;;;;13.12;43.83;101639.94;5002954;28;45180;-54
2022/09/18 06:56:39;;;;;;;;;6.50;6.50;;;;;13.03;43.19;101613.63;5003122;28;45434;-58
2022/09/18 06:59:04;;;;;;;;;8.00;8.00;;;;;13.10;44.07;101628.53;5002287;28;45314;-59
2022/09/18 07:01:30;;;;;;;;;8.00;8.00;;;;;13.10;43.94;101628.53;5003163;28;45678;-56
2022/09/18 07:03:55;;;;;;;;;9.00;7.00;;;;;13.12;43.87;101630.25;5002864;28;45366;-56
2022/09/18 07:06:21;;;;;;;;;8.75;7.00;;;;;13.11;44.00;101627.63;5003173;28;45294;-57
2022/09/18 07:08:46;;;;;;;;;8.25;7.00;;;;;13.13;44.07;101633.75;4985207;28;45572;-52
2022/09/18 07:11:12;;;;;;;;;6.75;5.00;;;;;13.12;43.99;101629.41;5002903;28;46522;-59
2022/09/18 07:13:37;;;;;;;;;8.00;8.00;;;;;13.16;44.24;101628.47;5002733;28;45346;-55
2022/09/18 07:16:02;;;;;;;;;8.25;7.25;;;;;13.19;44.30;101635.47;5003000;28;45390;-57
2022/09/18 07:18:28;;;;;;;;;8.00;6.00;;;;;13.21;43.91;101629.28;5002945;28;45317;-56
2022/09/18 07:20:53;;;;;;;;;7.75;6.50;;;;;13.23;44.07;101631.91;5002577;28;45998;-59
2022/09/18 07:23:19;;;;;;;;;6.50;6.25;;;;;13.28;44.15;101632.72;5002995;28;45274;-59
2022/09/18 07:25:45;;;;;;;;;10.75;7.00;;;;;13.30;44.38;101631.81;5002880;28;45237;-57
2022/09/18 07:28:11;;;;;;;;;8.00;6.75;;;;;13.36;44.39;101641.44;5002524;28;45235;-52
2022/09/18 07:30:38;;;;;;;;;4.00;4.00;;;;;13.40;44.20;101639.69;5001937;28;46171;-57
2022/09/18 07:33:06;;;;;;;;;8.50;8.50;;;;;13.43;44.58;101642.25;5002239;28;45321;-52
2022/09/18 07:35:32;;;;;;;;;7.50;7.00;;;;;13.38;44.39;101630.88;4979701;28;45391;-51
2022/09/18 07:37:58;;;;;;;;;8.50;8.50;;;;;13.47;44.32;101646.59;4981034;28;45553;-50
2022/09/18 07:40:25;;;;;;;;;9.00;9.00;;;;;13.47;44.37;101644.84;4981151;28;46139;-57
2022/09/18 07:42:50;;;;;;;;;10.75;7.75;;;;;13.49;44.18;101632.50;4995062;28;45338;-51
2022/09/18 07:45:16;;;;;;;;;11.75;9.25;;;;;13.51;44.37;101637.78;4968178;28;45311;-57
2022/09/18 07:47:41;;;;;;;;;9.00;7.75;;;;;13.53;44.71;101646.53;4995778;28;45243;-56
2022/09/18 07:50:12;;;;;;;;;8.75;7.00;;;;;13.56;44.69;101646.50;5002281;28;46198;-57
2022/09/18 07:52:37;;;;;;;;;10.25;8.00;;;;;13.61;44.68;101638.50;5001547;28;45356;-56
2022/09/18 07:55:03;;;;;;;;;11.50;11.50;;;;;13.63;44.56;101645.56;5002324;28;45392;-56
2022/09/18 07:57:28;;;;;;;;;8.50;8.25;;;;;13.67;44.53;101643.72;4980987;28;45358;-52
2022/09/18 07:59:54;;;;;;;;;9.50;6.50;;;;;13.71;44.95;101631.34;5001705;28;45809;-53
2022/09/18 08:02:19;;;;;;;;;8.00;7.50;;;;;13.74;44.81;101649.81;4995880;28;45396;-54
2022/09/18 08:04:44;;;;;;;;;8.50;7.25;;;;;13.80;45.05;101647.97;5001653;28;45227;-53
2022/09/18 08:07:10;;;;;;;;;8.25;8.00;;;;;13.86;44.97;101647.03;5000738;28;45192;-57
2022/09/18 08:09:35;;;;;;;;;9.75;8.50;;;;;13.91;44.49;101639.91;4982027;28;46220;-52
2022/09/18 08:12:02;;;;;;;;;10.00;7.25;;;;;13.96;45.18;101634.53;5004918;28;45199;-52
2022/09/18 08:14:27;;;;;;;;;9.25;9.25;;;;;14.01;45.05;101637.13;5001380;28;45290;-54
2022/09/18 08:16:53;;;;;;;;;8.00;8.00;;;;;14.09;45.33;101646.69;5001278;28;45441;-50
2022/09/18 08:19:19;;;;;;;;;5.00;5.00;;;;;14.16;44.94;101642.16;5000495;28;45968;-49
2022/09/18 08:21:44;;;;;;;;;5.50;5.50;;;;;14.21;44.93;101639.47;5001020;28;45332;-56
2022/09/18 08:24:09;;;;;;;;;5.00;5.00;;;;;14.29;45.12;101643.75;5001464;28;45386;-58
2022/09/18 08:26:37;;;;;;;;;8.75;6.25;;;;;14.39;45.18;101640.94;4991087;28;45376;-69
2022/09/18 08:29:03;;;;;;;;;7.25;6.25;;;;;14.49;44.94;101644.31;5001190;28;46140;-64
2022/09/18 08:31:28;;;;;;;;;6.25;6.25;;;;;14.57;45.20;101639.78;5001049;28;45358;-64
2022/09/18 08:33:54;;;;;;;;;7.00;7.00;;;;;14.66;45.30;101641.44;5001489;28;45445;-67
2022/09/18 08:36:19;;;;;;;;;6.00;4.00;;;;;14.76;44.84;101650.97;5000032;28;45448;-64
2022/09/18 08:38:44;;;;;;;;;19.50;19.00;;;;;14.85;45.12;101653.44;5001234;28;45564;-67
2022/09/18 08:41:39;;;;;;;;;8.25;5.50;;;;;14.96;45.06;101645.31;5001193;28;45331;-66
2022/09/18 08:44:23;;;;;;;;;6.00;5.50;;;;;15.06;45.50;101651.31;5001143;28;45362;-69
2022/09/18 08:47:21;;;;;;;;;5.00;3.75;;;;;15.17;45.42;101653.75;4971438;28;45392;-64
2022/09/18 08:50:08;;;;;;;;;4.00;3.75;;;;;15.32;45.61;101657.88;4977871;28;47036;-66
2022/09/18 08:52:39;;;;;;;;;4.00;4.00;;;;;15.41;45.15;101648.00;5001002;28;45397;-69
2022/09/18 08:55:29;;;;;;;;;3.25;3.00;;;;;15.52;45.40;101645.13;5001411;28;45424;-69
2022/09/18 08:58:02;;;;;;;;;8.25;5.25;;;;;15.65;44.94;101645.75;5000304;28;45490;-62
2022/09/18 09:00:36;;;;;;;;;5.00;5.00;;;;;15.78;44.85;101646.34;4983350;28;46138;-64
2022/09/18 09:03:33;;;;;;;;;5.75;4.25;;;;;15.89;44.99;101643.50;4992287;28;45303;-71
2022/09/18 09:06:13;;;;;;;;;8.00;7.25;;;;;16.02;44.85;101638.81;4991662;28;45473;-76
2022/09/18 09:09:00;;;;;;;;;7.00;6.00;;;;;16.15;45.16;101639.38;4982992;28;45512;-74
2022/09/18 09:11:49;;;;;;;;;4.75;4.00;;;;;16.28;45.17;101634.69;4998746;28;46286;-61
2022/09/18 09:14:39;;;;;;;;;6.25;5.00;;;;;16.42;44.94;101632.56;5000460;28;45422;-60
2022/09/18 09:17:16;;;;;;;;;4.00;3.00;;;;;16.57;44.60;101632.16;4989716;28;45352;-62
2022/09/18 09:20:22;;;;;;;;;3.00;3.00;;;;;16.69;44.44;101635.41;5000602;28;45199;-61
2022/09/18 09:23:10;;;;;;;;;1.25;1.00;;;;;16.86;44.55;101643.81;4999927;28;47463;-67
2022/09/18 09:25:58;;;;;;;;;1.00;1.00;;;;;17.01;44.30;101639.06;5000673;28;45412;-68
2022/09/18 09:28:42;;;;;;;;;1.75;1.75;;;;;17.13;44.38;101637.84;4999156;28;45559;-70
2022/09/18 09:31:09;;;;;;;;;1.25;1.25;;;;;17.25;44.24;101628.69;4998374;28;45910;-75
2022/09/18 09:34:01;;;;;;;;;1.25;1.25;;;;;17.39;43.85;101637.13;5000105;28;45993;-70
2022/09/18 09:36:29;;;;;;;;;2.50;2.50;;;;;17.50;43.49;101616.44;4986281;28;45558;-69
2022/09/18 09:39:06;;;;;;;;;1.25;1.25;;;;;17.61;43.62;101623.19;5000508;28;45374;-72
2022/09/18 09:41:41;;;;;;;;;1.50;1.50;;;;;17.74;43.26;101626.38;4979458;28;45456;-69
2022/09/18 09:44:19;;;;;;;;;1.00;1.00;;;;;17.86;42.84;101628.66;4998086;28;46074;-71
2022/09/18 09:47:02;;;;;;;;;2.00;0.50;;;;;17.95;42.83;101623.09;5000311;28;45432;-69
2022/09/18 09:49:31;;;;;;;;;1.00;1.00;;;;;18.04;42.60;101629.91;4989764;28;45311;-65
2022/09/18 09:52:14;;;;;;;;;1.25;0.00;;;;;18.14;42.46;101631.34;5000239;28;45437;-65
2022/09/18 09:54:40;;;;;;;;;2.00;2.00;;;;;18.24;42.44;101626.63;4996512;28;45618;-65
2022/09/18 09:57:14;;;;;;;;;0.50;0.50;;;;;18.33;42.24;101618.31;4980778;28;45398;-65
2022/09/18 10:00:07;;;;;;;;;1.25;1.25;;;;;18.47;41.98;101617.00;4999772;28;45314;-58
2022/09/18 10:02:47;;;;;;;;;1.75;1.00;;;;;18.56;42.00;101618.50;4976039;28;45467;-59
2022/09/18 10:05:31;;;;;;;;;1.75;1.75;;;;;18.64;41.24;101619.09;4997277;28;45380;-64
2022/09/18 10:07:59;;;;;;;;;0.75;0.75;;;;;18.70;41.52;101624.19;4979073;28;45378;-58
2022/09/18 10:10:52;;;;;;;;;1.00;1.00;;;;;18.77;41.08;101615.09;4993933;28;45258;-63
2022/09/18 10:13:22;;;;;;;;;0.50;0.00;;;;;18.84;41.43;101618.41;4998869;28;45700;-76
2022/09/18 10:15:52;;;;;;;;;1.50;1.50;;;;;18.93;40.88;101614.56;4999623;28;46363;-77
2022/09/18 10:18:22;;;;;;;;;1.50;1.50;;;;;19.00;40.74;101610.78;4998987;28;45520;-65
2022/09/18 10:20:54;;;;;;;;;2.25;2.25;;;;;19.09;40.90;101604.25;4999911;28;45275;-63
2022/09/18 10:23:29;;;;;;;;;3.50;2.25;;;;;19.17;41.03;101612.84;4978467;28;45382;-59
2022/09/18 10:25:59;;;;;;;;;1.00;1.00;;;;;19.26;40.99;101606.31;4994031;28;46501;-66
2022/09/18 10:28:28;;;;;;;;;1.00;1.00;;;;;19.35;40.63;101599.78;4999372;28;45326;-61
2022/09/18 10:31:11;;;;;;;;;1.00;1.00;;;;;19.43;40.70;101597.66;4999043;28;45497;-63
2022/09/18 10:33:44;;;;;;;;;2.00;2.00;;;;;19.49;40.67;101595.63;4998703;28;45451;-59
2022/09/18 10:36:30;;;;;;;;;2.00;2.00;;;;;19.61;40.23;101591.63;4999178;28;45430;-60
2022/09/18 10:38:58;;;;;;;;;2.25;1.25;;;;;19.72;40.18;101593.91;4999402;28;45524;-65
2022/09/18 10:41:44;;;;;;;;;1.25;1.25;;;;;19.81;40.62;101582.84;4999855;28;45379;-64
2022/09/18 10:44:23;;;;;;;;;2.00;2.00;;;;;19.96;40.72;101592.09;4998522;28;45555;-61
2022/09/18 10:46:59;;;;;;;;;2.00;2.00;;;;;20.12;40.37;101586.13;4999518;28;45363;-52
2022/09/18 10:49:55;;;;;;;;;3.00;1.50;;;;;20.28;39.94;101583.69;4978837;28;45425;-55
2022/09/18 10:52:27;;;;;;;;;0.75;0.75;;;;;20.47;40.20;101594.47;4998765;28;45343;-58
2022/09/18 10:55:22;;;;;;;;;2.00;2.00;;;;;20.63;40.15;101586.66;4999417;28;45502;-56
2022/09/18 10:57:47;;;;;;;;;1.00;1.00;;;;;20.81;39.46;101586.84;4995257;28;46112;-58
2022/09/18 11:00:15;;;;;;;;;2.00;2.00;;;;;21.01;40.17;101585.94;4999260;28;45270;-56
2022/09/18 11:02:56;;;;;;;;;1.00;1.00;;;;;21.21;40.22;101585.91;4989691;28;46249;-58
2022/09/18 11:05:31;;;;;;;;;1.75;1.75;;;;;21.46;39.49;101581.22;4967462;28;45259;-55
2022/09/18 11:08:02;;;;;;;;;3.00;2.00;;;;;21.67;39.83;101585.63;4992619;28;47204;-57
2022/09/18 11:10:35;;;;;;;;;2.25;2.00;;;;;21.90;39.40;101583.63;4993476;28;45397;-54
2022/09/18 11:13:02;;;;;;;;;0.50;0.50;;;;;22.12;39.21;101587.94;4998922;28;45493;-53
2022/09/18 11:15:31;;;;;;;;;2.00;2.00;;;;;22.33;38.93;101575.28;4981929;28;45430;-58
2022/09/18 11:18:00;;;;;;;;;3.00;2.00;;;;;22.58;38.79;101577.59;4999693;28;46129;-47
2022/09/18 11:20:29;;;;;;;;;1.00;1.00;;;;;22.77;39.02;101579.34;5002232;28;45431;-46
2022/09/18 11:23:21;;;;;;;;;2.00;2.00;;;;;22.98;38.51;101569.25;4983423;28;45523;-50
2022/09/18 11:25:47;;;;;;;;;2.25;1.00;;;;;23.16;38.59;101568.31;4984700;28;45365;-49
2022/09/18 11:28:31;;;;;;;;;4.00;2.00;;;;;23.37;38.31;101565.41;4999855;28;46211;-50
2022/09/18 11:31:00;;;;;;;;;2.00;2.00;;;;;23.64;38.37;101573.72;4993564;28;46398;-49
2022/09/18 11:33:34;;;;;;;;;1.25;1.00;;;;;23.96;38.45;101564.81;4992532;28;45552;-50
2022/09/18 11:36:04;;;;;;;;;4.50;2.50;;;;;24.30;38.17;101566.41;4995391;28;45437;-50
2022/09/18 11:38:37;;;;;;;;;2.00;2.00;;;;;24.61;38.44;101567.22;5000305;28;47456;-47
2022/09/18 11:41:03;;;;;;;;;0.00;0.00;;;;;24.92;37.77;101568.09;4983277;28;45433;-49